sensor_id;sensor_type;location;lat;lon;timestamp;P1;durP1;ratioP1;P2;durP2;ratioP2
37049;SDS011;22958;51.232;6.826;2023-03-23T00:02:06;5.88;;;1.88;;
37049;SDS011;22958;51.232;6.826;2023-03-23T00:04:31;9.60;;;2.50;;
37049;SDS011;22958;51.232;6.826;2023-03-23T00:06:57;12.03;;;2.50;;
37049;SDS011;22958;51.232;6.826;2023-03-23T00:09:26;7.03;;;2.45;;
37049;SDS011;22958;51.232;6.826;2023-03-23T00:11:51;3.27;;;1.83;;
37049;SDS011;22958;51.232;6.826;2023-03-23T00:14:21;6.85;;;2.42;;
37049;SDS011;22958;51.232;6.826;2023-03-23T00:16:48;5.03;;;2.30;;
37049;SDS011;22958;51.232;6.826;2023-03-23T00:21:41;8.43;;;2.25;;
37049;SDS011;22958;51.232;6.826;2023-03-23T00:24:15;7.63;;;2.83;;
37049;SDS011;22958;51.232;6.826;2023-03-23T00:26:43;5.40;;;2.28;;
37049;SDS011;22958;51.232;6.826;2023-03-23T00:29:12;4.28;;;2.08;;
37049;SDS011;22958;51.232;6.826;2023-03-23T00:31:41;6.10;;;2.20;;
37049;SDS011;22958;51.232;6.826;2023-03-23T00:34:11;6.32;;;2.95;;
37049;SDS011;22958;51.232;6.826;2023-03-23T00:36:44;4.97;;;2.38;;
37049;SDS011;22958;51.232;6.826;2023-03-23T00:39:13;6.18;;;2.78;;
37049;SDS011;22958;51.232;6.826;2023-03-23T00:41:41;5.80;;;2.40;;
37049;SDS011;22958;51.232;6.826;2023-03-23T00:44:10;7.63;;;2.60;;
37049;SDS011;22958;51.232;6.826;2023-03-23T00:46:41;5.28;;;2.28;;
37049;SDS011;22958;51.232;6.826;2023-03-23T00:49:12;7.68;;;2.65;;
37049;SDS011;22958;51.232;6.826;2023-03-23T00:51:38;6.03;;;2.58;;
37049;SDS011;22958;51.232;6.826;2023-03-23T00:54:04;7.03;;;2.20;;
37049;SDS011;22958;51.232;6.826;2023-03-23T00:56:30;6.63;;;2.00;;
37049;SDS011;22958;51.232;6.826;2023-03-23T00:58:56;5.77;;;2.60;;
37049;SDS011;22958;51.232;6.826;2023-03-23T01:01:21;6.07;;;1.87;;
37049;SDS011;22958;51.232;6.826;2023-03-23T01:03:47;4.03;;;1.87;;
37049;SDS011;22958;51.232;6.826;2023-03-23T01:06:14;6.25;;;1.77;;
37049;SDS011;22958;51.232;6.826;2023-03-23T01:08:40;9.37;;;1.83;;
37049;SDS011;22958;51.232;6.826;2023-03-23T01:11:10;4.53;;;1.60;;
37049;SDS011;22958;51.232;6.826;2023-03-23T01:13:40;10.77;;;3.17;;
37049;SDS011;22958;51.232;6.826;2023-03-23T01:16:08;5.32;;;2.50;;
37049;SDS011;22958;51.232;6.826;2023-03-23T01:18:35;6.57;;;2.22;;
37049;SDS011;22958;51.232;6.826;2023-03-23T01:21:11;3.15;;;2.00;;
37049;SDS011;22958;51.232;6.826;2023-03-23T01:23:39;6.85;;;2.15;;
37049;SDS011;22958;51.232;6.826;2023-03-23T01:26:09;4.30;;;1.87;;
37049;SDS011;22958;51.232;6.826;2023-03-23T01:28:36;5.28;;;2.33;;
37049;SDS011;22958;51.232;6.826;2023-03-23T01:31:03;7.55;;;2.90;;
37049;SDS011;22958;51.232;6.826;2023-03-23T01:33:31;7.97;;;2.60;;
37049;SDS011;22958;51.232;6.826;2023-03-23T01:35:57;5.40;;;2.78;;
37049;SDS011;22958;51.232;6.826;2023-03-23T01:38:26;8.95;;;2.75;;
37049;SDS011;22958;51.232;6.826;2023-03-23T01:40:52;8.27;;;2.10;;
37049;SDS011;22958;51.232;6.826;2023-03-23T01:43:17;8.80;;;2.77;;
37049;SDS011;22958;51.232;6.826;2023-03-23T01:45:43;10.70;;;2.67;;
37049;SDS011;22958;51.232;6.826;2023-03-23T01:48:10;6.23;;;2.90;;
37049;SDS011;22958;51.232;6.826;2023-03-23T01:50:58;10.57;;;2.88;;
37049;SDS011;22958;51.232;6.826;2023-03-23T01:53:33;5.78;;;3.28;;
37049;SDS011;22958;51.232;6.826;2023-03-23T01:56:07;8.15;;;2.97;;
37049;SDS011;22958;51.232;6.826;2023-03-23T01:58:38;10.90;;;3.08;;
37049;SDS011;22958;51.232;6.826;2023-03-23T02:01:06;6.57;;;3.10;;
37049;SDS011;22958;51.232;6.826;2023-03-23T02:03:37;9.15;;;2.90;;
37049;SDS011;22958;51.232;6.826;2023-03-23T02:06:04;5.40;;;2.90;;
37049;SDS011;22958;51.232;6.826;2023-03-23T02:08:30;10.65;;;2.72;;
37049;SDS011;22958;51.232;6.826;2023-03-23T02:10:58;6.10;;;2.78;;
37049;SDS011;22958;51.232;6.826;2023-03-23T02:13:24;6.90;;;2.78;;
37049;SDS011;22958;51.232;6.826;2023-03-23T02:29:39;8.88;;;2.40;;
37049;SDS011;22958;51.232;6.826;2023-03-23T02:35:03;7.45;;;2.40;;
37049;SDS011;22958;51.232;6.826;2023-03-23T02:37:36;8.18;;;2.40;;
37049;SDS011;22958;51.232;6.826;2023-03-23T02:40:26;4.85;;;2.67;;
37049;SDS011;22958;51.232;6.826;2023-03-23T02:42:57;8.50;;;2.72;;
37049;SDS011;22958;51.232;6.826;2023-03-23T02:45:24;5.55;;;2.30;;
37049;SDS011;22958;51.232;6.826;2023-03-23T02:47:53;7.25;;;2.88;;
37049;SDS011;22958;51.232;6.826;2023-03-23T02:50:21;7.00;;;2.65;;
37049;SDS011;22958;51.232;6.826;2023-03-23T02:52:48;5.18;;;2.55;;
37049;SDS011;22958;51.232;6.826;2023-03-23T02:55:15;6.65;;;2.50;;
37049;SDS011;22958;51.232;6.826;2023-03-23T02:57:44;6.25;;;2.45;;
37049;SDS011;22958;51.232;6.826;2023-03-23T03:00:12;5.22;;;2.47;;
37049;SDS011;22958;51.232;6.826;2023-03-23T03:02:41;4.18;;;2.15;;
37049;SDS011;22958;51.232;6.826;2023-03-23T03:08:24;7.20;;;2.75;;
37049;SDS011;22958;51.232;6.826;2023-03-23T03:10:57;3.83;;;2.28;;
37049;SDS011;22958;51.232;6.826;2023-03-23T03:13:45;3.45;;;2.17;;
37049;SDS011;22958;51.232;6.826;2023-03-23T03:21:20;5.95;;;2.80;;
37049;SDS011;22958;51.232;6.826;2023-03-23T03:23:50;6.22;;;2.97;;
37049;SDS011;22958;51.232;6.826;2023-03-23T03:26:19;9.98;;;2.55;;
37049;SDS011;22958;51.232;6.826;2023-03-23T03:28:46;5.32;;;2.65;;
37049;SDS011;22958;51.232;6.826;2023-03-23T03:31:15;5.60;;;2.60;;
37049;SDS011;22958;51.232;6.826;2023-03-23T03:33:43;4.57;;;2.20;;
37049;SDS011;22958;51.232;6.826;2023-03-23T03:36:14;6.43;;;2.43;;
37049;SDS011;22958;51.232;6.826;2023-03-23T03:38:46;9.13;;;2.40;;
37049;SDS011;22958;51.232;6.826;2023-03-23T03:41:13;4.72;;;2.03;;
37049;SDS011;22958;51.232;6.826;2023-03-23T03:43:39;7.63;;;2.17;;
37049;SDS011;22958;51.232;6.826;2023-03-23T03:46:05;4.77;;;2.40;;
37049;SDS011;22958;51.232;6.826;2023-03-23T03:48:31;5.17;;;2.27;;
37049;SDS011;22958;51.232;6.826;2023-03-23T03:50:57;7.90;;;2.53;;
37049;SDS011;22958;51.232;6.826;2023-03-23T03:53:25;5.22;;;2.33;;
37049;SDS011;22958;51.232;6.826;2023-03-23T03:55:51;2.80;;;1.88;;
37049;SDS011;22958;51.232;6.826;2023-03-23T03:58:20;7.25;;;2.10;;
37049;SDS011;22958;51.232;6.826;2023-03-23T04:00:46;3.22;;;2.20;;
37049;SDS011;22958;51.232;6.826;2023-03-23T04:05:39;3.85;;;2.03;;
37049;SDS011;22958;51.232;6.826;2023-03-23T04:08:06;3.85;;;1.88;;
37049;SDS011;22958;51.232;6.826;2023-03-23T04:10:32;4.63;;;2.30;;
37049;SDS011;22958;51.232;6.826;2023-03-23T04:12:58;3.67;;;2.17;;
37049;SDS011;22958;51.232;6.826;2023-03-23T04:15:24;5.80;;;2.37;;
37049;SDS011;22958;51.232;6.826;2023-03-23T04:17:51;4.13;;;2.13;;
37049;SDS011;22958;51.232;6.826;2023-03-23T04:20:16;3.67;;;1.97;;
37049;SDS011;22958;51.232;6.826;2023-03-23T04:22:46;5.65;;;1.67;;
37049;SDS011;22958;51.232;6.826;2023-03-23T04:25:14;3.75;;;1.70;;
37049;SDS011;22958;51.232;6.826;2023-03-23T04:27:42;3.75;;;1.70;;
37049;SDS011;22958;51.232;6.826;2023-03-23T04:30:08;2.63;;;1.95;;
37049;SDS011;22958;51.232;6.826;2023-03-23T04:32:36;3.80;;;1.83;;
37049;SDS011;22958;51.232;6.826;2023-03-23T04:35:06;3.90;;;1.90;;
37049;SDS011;22958;51.232;6.826;2023-03-23T04:37:37;6.15;;;1.92;;
37049;SDS011;22958;51.232;6.826;2023-03-23T04:40:04;6.32;;;1.92;;
37049;SDS011;22958;51.232;6.826;2023-03-23T04:42:35;3.60;;;2.10;;
37049;SDS011;22958;51.232;6.826;2023-03-23T04:45:02;4.32;;;1.98;;
37049;SDS011;22958;51.232;6.826;2023-03-23T04:47:31;3.03;;;1.77;;
37049;SDS011;22958;51.232;6.826;2023-03-23T04:49:59;3.63;;;1.90;;
37049;SDS011;22958;51.232;6.826;2023-03-23T04:52:26;5.78;;;2.17;;
37049;SDS011;22958;51.232;6.826;2023-03-23T04:54:53;5.28;;;2.25;;
37049;SDS011;22958;51.232;6.826;2023-03-23T04:57:20;5.15;;;2.10;;
37049;SDS011;22958;51.232;6.826;2023-03-23T04:59:47;5.47;;;2.50;;
37049;SDS011;22958;51.232;6.826;2023-03-23T05:02:13;3.37;;;1.93;;
37049;SDS011;22958;51.232;6.826;2023-03-23T05:04:39;4.45;;;2.10;;
37049;SDS011;22958;51.232;6.826;2023-03-23T05:07:08;3.25;;;1.98;;
37049;SDS011;22958;51.232;6.826;2023-03-23T05:09:36;4.78;;;2.08;;
37049;SDS011;22958;51.232;6.826;2023-03-23T05:12:05;4.83;;;2.23;;
37049;SDS011;22958;51.232;6.826;2023-03-23T05:14:32;5.43;;;2.08;;
37049;SDS011;22958;51.232;6.826;2023-03-23T05:16:57;5.93;;;1.90;;
37049;SDS011;22958;51.232;6.826;2023-03-23T05:19:23;2.83;;;1.80;;
37049;SDS011;22958;51.232;6.826;2023-03-23T05:21:48;2.03;;;1.40;;
37049;SDS011;22958;51.232;6.826;2023-03-23T05:24:14;4.80;;;2.10;;
37049;SDS011;22958;51.232;6.826;2023-03-23T05:26:39;3.93;;;2.60;;
37049;SDS011;22958;51.232;6.826;2023-03-23T05:29:05;6.93;;;2.50;;
37049;SDS011;22958;51.232;6.826;2023-03-23T05:31:30;7.53;;;2.27;;
37049;SDS011;22958;51.232;6.826;2023-03-23T05:33:56;5.80;;;2.58;;
37049;SDS011;22958;51.232;6.826;2023-03-23T05:36:22;4.30;;;2.30;;
37049;SDS011;22958;51.232;6.826;2023-03-23T05:38:48;4.97;;;2.43;;
37049;SDS011;22958;51.232;6.826;2023-03-23T05:41:15;8.60;;;2.58;;
37049;SDS011;22958;51.232;6.826;2023-03-23T05:43:41;9.03;;;2.97;;
37049;SDS011;22958;51.232;6.826;2023-03-23T05:46:07;5.43;;;2.60;;
37049;SDS011;22958;51.232;6.826;2023-03-23T05:48:33;5.67;;;2.57;;
37049;SDS011;22958;51.232;6.826;2023-03-23T05:50:59;6.28;;;2.67;;
37049;SDS011;22958;51.232;6.826;2023-03-23T05:53:25;6.97;;;2.43;;
37049;SDS011;22958;51.232;6.826;2023-03-23T05:55:50;7.63;;;2.90;;
37049;SDS011;22958;51.232;6.826;2023-03-23T05:58:16;5.77;;;2.60;;
37049;SDS011;22958;51.232;6.826;2023-03-23T06:00:42;4.60;;;2.63;;
37049;SDS011;22958;51.232;6.826;2023-03-23T06:03:08;6.87;;;2.97;;
37049;SDS011;22958;51.232;6.826;2023-03-23T06:05:34;8.40;;;2.70;;
37049;SDS011;22958;51.232;6.826;2023-03-23T06:07:59;5.43;;;2.60;;
37049;SDS011;22958;51.232;6.826;2023-03-23T06:10:25;5.07;;;2.90;;
37049;SDS011;22958;51.232;6.826;2023-03-23T06:12:51;7.97;;;2.72;;
37049;SDS011;22958;51.232;6.826;2023-03-23T06:15:17;8.57;;;2.97;;
37049;SDS011;22958;51.232;6.826;2023-03-23T06:17:43;7.50;;;2.40;;
37049;SDS011;22958;51.232;6.826;2023-03-23T06:20:09;14.33;;;3.20;;
37049;SDS011;22958;51.232;6.826;2023-03-23T06:22:38;4.93;;;2.33;;
37049;SDS011;22958;51.232;6.826;2023-03-23T06:25:07;7.55;;;2.70;;
37049;SDS011;22958;51.232;6.826;2023-03-23T06:27:36;9.20;;;2.63;;
37049;SDS011;22958;51.232;6.826;2023-03-23T06:30:02;7.40;;;2.53;;
37049;SDS011;22958;51.232;6.826;2023-03-23T06:32:28;6.50;;;2.85;;
37049;SDS011;22958;51.232;6.826;2023-03-23T06:34:56;15.10;;;2.60;;
37049;SDS011;22958;51.232;6.826;2023-03-23T06:37:22;10.80;;;2.78;;
37049;SDS011;22958;51.232;6.826;2023-03-23T06:42:15;10.23;;;2.60;;
37049;SDS011;22958;51.232;6.826;2023-03-23T06:44:40;8.80;;;2.67;;
37049;SDS011;22958;51.232;6.826;2023-03-23T06:47:06;4.67;;;2.20;;
37049;SDS011;22958;51.232;6.826;2023-03-23T06:49:32;13.93;;;2.25;;
37049;SDS011;22958;51.232;6.826;2023-03-23T06:51:58;11.43;;;2.20;;
37049;SDS011;22958;51.232;6.826;2023-03-23T06:54:26;6.38;;;1.60;;
37049;SDS011;22958;51.232;6.826;2023-03-23T06:56:52;7.70;;;1.88;;
37049;SDS011;22958;51.232;6.826;2023-03-23T06:59:18;11.00;;;2.30;;
37049;SDS011;22958;51.232;6.826;2023-03-23T07:01:44;11.48;;;2.38;;
37049;SDS011;22958;51.232;6.826;2023-03-23T07:04:11;10.73;;;2.72;;
37049;SDS011;22958;51.232;6.826;2023-03-23T07:06:38;7.32;;;2.17;;
37049;SDS011;22958;51.232;6.826;2023-03-23T07:09:04;6.53;;;2.30;;
37049;SDS011;22958;51.232;6.826;2023-03-23T07:11:29;6.00;;;1.90;;
37049;SDS011;22958;51.232;6.826;2023-03-23T07:13:55;10.17;;;2.23;;
37049;SDS011;22958;51.232;6.826;2023-03-23T07:16:21;4.40;;;1.83;;
37049;SDS011;22958;51.232;6.826;2023-03-23T07:18:46;7.03;;;1.90;;
37049;SDS011;22958;51.232;6.826;2023-03-23T07:21:12;6.93;;;2.10;;
37049;SDS011;22958;51.232;6.826;2023-03-23T07:23:38;5.43;;;1.63;;
37049;SDS011;22958;51.232;6.826;2023-03-23T07:26:03;6.43;;;1.70;;
37049;SDS011;22958;51.232;6.826;2023-03-23T07:28:29;11.38;;;2.28;;
37049;SDS011;22958;51.232;6.826;2023-03-23T07:30:55;11.40;;;2.07;;
37049;SDS011;22958;51.232;6.826;2023-03-23T07:33:20;8.57;;;2.33;;
37049;SDS011;22958;51.232;6.826;2023-03-23T07:35:47;11.27;;;2.63;;
37049;SDS011;22958;51.232;6.826;2023-03-23T07:38:13;8.63;;;2.20;;
37049;SDS011;22958;51.232;6.826;2023-03-23T07:40:38;9.32;;;3.72;;
37049;SDS011;22958;51.232;6.826;2023-03-23T07:43:05;7.45;;;1.98;;
37049;SDS011;22958;51.232;6.826;2023-03-23T07:45:31;6.03;;;2.40;;
37049;SDS011;22958;51.232;6.826;2023-03-23T07:47:56;9.70;;;2.43;;
37049;SDS011;22958;51.232;6.826;2023-03-23T07:50:22;10.93;;;2.57;;
37049;SDS011;22958;51.232;6.826;2023-03-23T07:52:49;10.20;;;2.65;;
37049;SDS011;22958;51.232;6.826;2023-03-23T07:55:17;11.13;;;1.90;;
37049;SDS011;22958;51.232;6.826;2023-03-23T07:57:44;10.93;;;1.90;;
37049;SDS011;22958;51.232;6.826;2023-03-23T08:00:11;12.15;;;2.63;;
37049;SDS011;22958;51.232;6.826;2023-03-23T08:02:43;5.75;;;1.77;;
37049;SDS011;22958;51.232;6.826;2023-03-23T08:05:13;6.28;;;1.58;;
37049;SDS011;22958;51.232;6.826;2023-03-23T08:07:40;5.20;;;1.65;;
37049;SDS011;22958;51.232;6.826;2023-03-23T08:12:35;7.28;;;1.63;;
37049;SDS011;22958;51.232;6.826;2023-03-23T08:15:01;12.75;;;2.10;;
37049;SDS011;22958;51.232;6.826;2023-03-23T08:17:28;11.65;;;2.30;;
37049;SDS011;22958;51.232;6.826;2023-03-23T08:19:53;5.80;;;1.63;;
37049;SDS011;22958;51.232;6.826;2023-03-23T08:22:19;3.40;;;1.80;;
37049;SDS011;22958;51.232;6.826;2023-03-23T08:24:45;10.05;;;1.95;;
37049;SDS011;22958;51.232;6.826;2023-03-23T08:27:11;12.43;;;1.93;;
37049;SDS011;22958;51.232;6.826;2023-03-23T08:29:36;9.50;;;2.07;;
37049;SDS011;22958;51.232;6.826;2023-03-23T08:32:03;5.07;;;1.60;;
37049;SDS011;22958;51.232;6.826;2023-03-23T08:34:29;8.55;;;1.77;;
37049;SDS011;22958;51.232;6.826;2023-03-23T08:36:55;8.68;;;1.73;;
37049;SDS011;22958;51.232;6.826;2023-03-23T08:39:21;6.60;;;1.93;;
37049;SDS011;22958;51.232;6.826;2023-03-23T08:41:48;7.72;;;1.65;;
37049;SDS011;22958;51.232;6.826;2023-03-23T08:44:13;7.23;;;2.30;;
37049;SDS011;22958;51.232;6.826;2023-03-23T08:46:39;4.73;;;1.40;;
37049;SDS011;22958;51.232;6.826;2023-03-23T08:49:05;5.10;;;1.90;;
37049;SDS011;22958;51.232;6.826;2023-03-23T08:51:31;9.73;;;2.03;;
37049;SDS011;22958;51.232;6.826;2023-03-23T08:53:57;8.02;;;2.05;;
37049;SDS011;22958;51.232;6.826;2023-03-23T08:56:22;7.70;;;2.00;;
37049;SDS011;22958;51.232;6.826;2023-03-23T08:58:48;11.90;;;1.87;;
37049;SDS011;22958;51.232;6.826;2023-03-23T09:01:14;14.93;;;3.43;;
37049;SDS011;22958;51.232;6.826;2023-03-23T09:03:40;6.22;;;1.48;;
37049;SDS011;22958;51.232;6.826;2023-03-23T09:06:06;11.15;;;1.60;;
37049;SDS011;22958;51.232;6.826;2023-03-23T09:08:33;10.90;;;1.83;;
37049;SDS011;22958;51.232;6.826;2023-03-23T09:11:04;8.82;;;1.65;;
37049;SDS011;22958;51.232;6.826;2023-03-23T09:13:32;5.95;;;1.48;;
37049;SDS011;22958;51.232;6.826;2023-03-23T09:18:24;8.30;;;1.95;;
37049;SDS011;22958;51.232;6.826;2023-03-23T09:20:50;12.38;;;1.90;;
37049;SDS011;22958;51.232;6.826;2023-03-23T09:25:43;10.10;;;1.70;;
37049;SDS011;22958;51.232;6.826;2023-03-23T09:28:09;13.77;;;2.20;;
37049;SDS011;22958;51.232;6.826;2023-03-23T09:30:35;10.83;;;2.40;;
37049;SDS011;22958;51.232;6.826;2023-03-23T09:33:03;8.25;;;2.28;;
37049;SDS011;22958;51.232;6.826;2023-03-23T09:35:30;11.10;;;2.03;;
37049;SDS011;22958;51.232;6.826;2023-03-23T09:38:00;13.10;;;2.65;;
37049;SDS011;22958;51.232;6.826;2023-03-23T09:48:54;9.88;;;2.20;;
37049;SDS011;22958;51.232;6.826;2023-03-23T09:51:26;18.38;;;2.55;;
37049;SDS011;22958;51.232;6.826;2023-03-23T09:54:17;11.43;;;1.92;;
37049;SDS011;22958;51.232;6.826;2023-03-23T09:56:43;13.68;;;2.08;;
37049;SDS011;22958;51.232;6.826;2023-03-23T09:59:16;13.02;;;1.98;;
37049;SDS011;22958;51.232;6.826;2023-03-23T10:01:44;13.00;;;1.80;;
37049;SDS011;22958;51.232;6.826;2023-03-23T10:06:49;3.92;;;1.13;;
37049;SDS011;22958;51.232;6.826;2023-03-23T10:09:16;4.45;;;0.50;;
37049;SDS011;22958;51.232;6.826;2023-03-23T10:19:52;5.80;;;1.08;;
37049;SDS011;22958;51.232;6.826;2023-03-23T10:22:33;8.73;;;0.95;;
37049;SDS011;22958;51.232;6.826;2023-03-23T10:30:24;5.72;;;0.93;;
37049;SDS011;22958;51.232;6.826;2023-03-23T10:38:37;6.38;;;0.82;;
37049;SDS011;22958;51.232;6.826;2023-03-23T10:41:10;5.00;;;0.80;;
37049;SDS011;22958;51.232;6.826;2023-03-23T10:43:39;4.30;;;1.00;;
37049;SDS011;22958;51.232;6.826;2023-03-23T10:48:58;4.22;;;1.00;;
37049;SDS011;22958;51.232;6.826;2023-03-23T10:51:28;4.90;;;1.38;;
37049;SDS011;22958;51.232;6.826;2023-03-23T10:53:59;6.63;;;1.15;;
37049;SDS011;22958;51.232;6.826;2023-03-23T10:56:43;4.60;;;1.10;;
37049;SDS011;22958;51.232;6.826;2023-03-23T10:59:28;7.78;;;1.20;;
37049;SDS011;22958;51.232;6.826;2023-03-23T11:01:58;7.60;;;1.05;;
37049;SDS011;22958;51.232;6.826;2023-03-23T11:04:27;5.15;;;1.35;;
37049;SDS011;22958;51.232;6.826;2023-03-23T11:06:54;4.60;;;1.53;;
37049;SDS011;22958;51.232;6.826;2023-03-23T11:09:39;5.25;;;1.15;;
37049;SDS011;22958;51.232;6.826;2023-03-23T11:12:17;4.85;;;1.27;;
37049;SDS011;22958;51.232;6.826;2023-03-23T11:14:44;8.02;;;1.13;;
37049;SDS011;22958;51.232;6.826;2023-03-23T11:17:24;4.27;;;1.20;;
37049;SDS011;22958;51.232;6.826;2023-03-23T11:19:51;8.10;;;1.75;;
37049;SDS011;22958;51.232;6.826;2023-03-23T11:22:27;4.10;;;1.52;;
37049;SDS011;22958;51.232;6.826;2023-03-23T11:24:59;8.90;;;1.90;;
37049;SDS011;22958;51.232;6.826;2023-03-23T11:27:28;6.90;;;1.25;;
37049;SDS011;22958;51.232;6.826;2023-03-23T11:29:56;6.22;;;1.55;;
37049;SDS011;22958;51.232;6.826;2023-03-23T11:32:26;6.75;;;1.50;;
37049;SDS011;22958;51.232;6.826;2023-03-23T11:34:58;5.18;;;1.02;;
37049;SDS011;22958;51.232;6.826;2023-03-23T11:37:32;4.22;;;1.20;;
37049;SDS011;22958;51.232;6.826;2023-03-23T11:48:06;7.75;;;3.13;;
37049;SDS011;22958;51.232;6.826;2023-03-23T11:59:02;8.20;;;2.40;;
37049;SDS011;22958;51.232;6.826;2023-03-23T12:04:47;9.02;;;2.85;;
37049;SDS011;22958;51.232;6.826;2023-03-23T12:16:00;10.32;;;3.08;;
37049;SDS011;22958;51.232;6.826;2023-03-23T12:18:37;13.00;;;3.53;;
37049;SDS011;22958;51.232;6.826;2023-03-23T12:21:35;10.95;;;3.17;;
37049;SDS011;22958;51.232;6.826;2023-03-23T12:24:15;4.68;;;2.63;;
37049;SDS011;22958;51.232;6.826;2023-03-23T12:27:12;5.55;;;2.55;;
37049;SDS011;22958;51.232;6.826;2023-03-23T12:30:03;4.03;;;2.25;;
37049;SDS011;22958;51.232;6.826;2023-03-23T12:32:55;6.28;;;3.08;;
37049;SDS011;22958;51.232;6.826;2023-03-23T12:38:44;6.82;;;3.28;;
37049;SDS011;22958;51.232;6.826;2023-03-23T12:44:28;10.27;;;3.47;;
37049;SDS011;22958;51.232;6.826;2023-03-23T12:52:51;12.15;;;4.30;;
37049;SDS011;22958;51.232;6.826;2023-03-23T12:55:24;14.50;;;4.50;;
37049;SDS011;22958;51.232;6.826;2023-03-23T12:58:00;15.13;;;4.10;;
37049;SDS011;22958;51.232;6.826;2023-03-23T13:00:35;11.60;;;3.85;;
37049;SDS011;22958;51.232;6.826;2023-03-23T13:03:25;13.57;;;4.80;;
37049;SDS011;22958;51.232;6.826;2023-03-23T13:08:31;11.33;;;4.77;;
37049;SDS011;22958;51.232;6.826;2023-03-23T13:11:03;12.35;;;3.97;;
37049;SDS011;22958;51.232;6.826;2023-03-23T13:13:44;7.25;;;3.72;;
37049;SDS011;22958;51.232;6.826;2023-03-23T13:22:27;6.95;;;3.72;;
37049;SDS011;22958;51.232;6.826;2023-03-23T13:25:45;8.13;;;3.35;;
37049;SDS011;22958;51.232;6.826;2023-03-23T13:28:19;11.38;;;3.83;;
37049;SDS011;22958;51.232;6.826;2023-03-23T13:30:57;9.70;;;3.55;;
37049;SDS011;22958;51.232;6.826;2023-03-23T13:33:25;8.18;;;3.03;;
37049;SDS011;22958;51.232;6.826;2023-03-23T13:35:54;6.47;;;3.38;;
37049;SDS011;22958;51.232;6.826;2023-03-23T13:38:24;10.18;;;3.63;;
37049;SDS011;22958;51.232;6.826;2023-03-23T13:40:53;5.30;;;3.38;;
37049;SDS011;22958;51.232;6.826;2023-03-23T13:43:30;7.72;;;3.38;;
37049;SDS011;22958;51.232;6.826;2023-03-23T13:46:07;10.57;;;4.03;;
37049;SDS011;22958;51.232;6.826;2023-03-23T13:48:49;10.35;;;4.20;;
37049;SDS011;22958;51.232;6.826;2023-03-23T13:55:20;10.75;;;4.93;;
37049;SDS011;22958;51.232;6.826;2023-03-23T13:57:33;10.23;;;4.68;;
37049;SDS011;22958;51.232;6.826;2023-03-23T14:00:09;14.00;;;5.43;;
37049;SDS011;22958;51.232;6.826;2023-03-23T14:02:58;7.88;;;4.47;;
37049;SDS011;22958;51.232;6.826;2023-03-23T14:05:44;8.95;;;5.13;;
37049;SDS011;22958;51.232;6.826;2023-03-23T14:08:38;11.27;;;5.93;;
37049;SDS011;22958;51.232;6.826;2023-03-23T14:11:13;12.50;;;6.60;;
37049;SDS011;22958;51.232;6.826;2023-03-23T14:16:36;17.23;;;7.65;;
37049;SDS011;22958;51.232;6.826;2023-03-23T14:19:13;13.25;;;5.10;;
37049;SDS011;22958;51.232;6.826;2023-03-23T14:21:52;15.95;;;5.72;;
37049;SDS011;22958;51.232;6.826;2023-03-23T14:26:51;12.52;;;2.33;;
37049;SDS011;22958;51.232;6.826;2023-03-23T14:29:18;8.48;;;2.92;;
37049;SDS011;22958;51.232;6.826;2023-03-23T14:31:47;8.77;;;2.53;;
37049;SDS011;22958;51.232;6.826;2023-03-23T14:34:19;4.28;;;1.63;;
37049;SDS011;22958;51.232;6.826;2023-03-23T14:36:46;6.60;;;1.63;;
37049;SDS011;22958;51.232;6.826;2023-03-23T14:41:51;6.30;;;1.63;;
37049;SDS011;22958;51.232;6.826;2023-03-23T14:44:28;11.52;;;2.10;;
37049;SDS011;22958;51.232;6.826;2023-03-23T14:46:55;9.00;;;2.40;;
37049;SDS011;22958;51.232;6.826;2023-03-23T14:49:28;8.13;;;1.73;;
37049;SDS011;22958;51.232;6.826;2023-03-23T14:52:03;5.78;;;1.52;;
37049;SDS011;22958;51.232;6.826;2023-03-23T14:54:40;5.82;;;1.98;;
37049;SDS011;22958;51.232;6.826;2023-03-23T14:57:12;10.18;;;2.42;;
37049;SDS011;22958;51.232;6.826;2023-03-23T14:59:41;10.45;;;2.53;;
37049;SDS011;22958;51.232;6.826;2023-03-23T15:02:10;10.73;;;2.63;;
37049;SDS011;22958;51.232;6.826;2023-03-23T15:04:50;9.93;;;2.53;;
37049;SDS011;22958;51.232;6.826;2023-03-23T15:07:20;11.27;;;2.45;;
37049;SDS011;22958;51.232;6.826;2023-03-23T15:09:49;10.48;;;2.60;;
37049;SDS011;22958;51.232;6.826;2023-03-23T15:12:19;8.97;;;2.93;;
37049;SDS011;22958;51.232;6.826;2023-03-23T15:14:48;12.57;;;2.90;;
37049;SDS011;22958;51.232;6.826;2023-03-23T15:17:20;7.82;;;2.45;;
37049;SDS011;22958;51.232;6.826;2023-03-23T15:19:51;12.13;;;2.78;;
37049;SDS011;22958;51.232;6.826;2023-03-23T15:22:20;9.45;;;2.08;;
37049;SDS011;22958;51.232;6.826;2023-03-23T15:25:12;16.73;;;2.85;;
37049;SDS011;22958;51.232;6.826;2023-03-23T15:27:51;10.75;;;2.13;;
37049;SDS011;22958;51.232;6.826;2023-03-23T15:32:47;9.57;;;2.03;;
37049;SDS011;22958;51.232;6.826;2023-03-23T15:35:17;9.85;;;2.25;;
37049;SDS011;22958;51.232;6.826;2023-03-23T15:37:46;7.80;;;1.95;;
37049;SDS011;22958;51.232;6.826;2023-03-23T15:40:17;7.57;;;1.67;;
37049;SDS011;22958;51.232;6.826;2023-03-23T15:42:45;8.15;;;2.30;;
37049;SDS011;22958;51.232;6.826;2023-03-23T15:47:38;10.43;;;2.07;;
37049;SDS011;22958;51.232;6.826;2023-03-23T15:52:52;10.70;;;2.17;;
37049;SDS011;22958;51.232;6.826;2023-03-23T15:55:22;15.40;;;3.33;;
37049;SDS011;22958;51.232;6.826;2023-03-23T15:57:50;12.02;;;3.30;;
37049;SDS011;22958;51.232;6.826;2023-03-23T16:00:17;15.07;;;2.72;;
37049;SDS011;22958;51.232;6.826;2023-03-23T16:02:45;16.52;;;3.85;;
37049;SDS011;22958;51.232;6.826;2023-03-23T16:05:31;16.00;;;3.33;;
37049;SDS011;22958;51.232;6.826;2023-03-23T16:07:58;13.95;;;3.25;;
37049;SDS011;22958;51.232;6.826;2023-03-23T16:10:24;13.60;;;2.60;;
37049;SDS011;22958;51.232;6.826;2023-03-23T16:12:51;12.88;;;3.63;;
37049;SDS011;22958;51.232;6.826;2023-03-23T16:15:17;7.55;;;3.00;;
37049;SDS011;22958;51.232;6.826;2023-03-23T16:17:43;9.52;;;2.75;;
37049;SDS011;22958;51.232;6.826;2023-03-23T16:20:14;10.63;;;3.30;;
37049;SDS011;22958;51.232;6.826;2023-03-23T16:22:44;12.35;;;2.55;;
37049;SDS011;22958;51.232;6.826;2023-03-23T16:25:10;12.07;;;2.70;;
37049;SDS011;22958;51.232;6.826;2023-03-23T16:27:37;7.07;;;2.38;;
37049;SDS011;22958;51.232;6.826;2023-03-23T16:30:09;13.52;;;2.90;;
37049;SDS011;22958;51.232;6.826;2023-03-23T16:32:39;14.02;;;3.25;;
37049;SDS011;22958;51.232;6.826;2023-03-23T16:35:05;15.00;;;3.13;;
37049;SDS011;22958;51.232;6.826;2023-03-23T16:37:31;8.38;;;2.50;;
37049;SDS011;22958;51.232;6.826;2023-03-23T16:42:23;9.40;;;2.53;;
37049;SDS011;22958;51.232;6.826;2023-03-23T16:44:48;9.93;;;3.40;;
37049;SDS011;22958;51.232;6.826;2023-03-23T16:47:15;9.90;;;2.40;;
37049;SDS011;22958;51.232;6.826;2023-03-23T16:49:42;9.40;;;2.92;;
37049;SDS011;22958;51.232;6.826;2023-03-23T16:52:08;9.07;;;2.77;;
37049;SDS011;22958;51.232;6.826;2023-03-23T16:54:34;12.87;;;2.63;;
37049;SDS011;22958;51.232;6.826;2023-03-23T16:57:01;13.70;;;2.30;;
37049;SDS011;22958;51.232;6.826;2023-03-23T16:59:27;7.95;;;2.03;;
37049;SDS011;22958;51.232;6.826;2023-03-23T17:01:52;12.27;;;2.80;;
37049;SDS011;22958;51.232;6.826;2023-03-23T17:04:18;14.90;;;2.40;;
37049;SDS011;22958;51.232;6.826;2023-03-23T17:06:43;10.83;;;2.53;;
37049;SDS011;22958;51.232;6.826;2023-03-23T17:11:36;8.38;;;1.73;;
37049;SDS011;22958;51.232;6.826;2023-03-23T17:14:01;8.37;;;2.07;;
37049;SDS011;22958;51.232;6.826;2023-03-23T17:16:27;9.77;;;2.27;;
37049;SDS011;22958;51.232;6.826;2023-03-23T17:18:52;14.00;;;2.37;;
37049;SDS011;22958;51.232;6.826;2023-03-23T17:21:18;12.17;;;2.37;;
37049;SDS011;22958;51.232;6.826;2023-03-23T17:23:44;10.80;;;2.95;;